createdAt,value
2018-12-27T00:00:54.976Z,68.90
2018-12-27T00:05:00.662Z,70.20
2018-12-27T00:09:07.967Z,69.90
2018-12-27T00:13:13.662Z,70.00
2018-12-27T00:17:19.457Z,69.20
2018-12-27T00:21:25.153Z,69.40
2018-12-27T00:25:30.845Z,69.80
2018-12-27T00:29:36.547Z,68.80
2018-12-27T00:33:42.424Z,68.50
2018-12-27T00:37:48.329Z,69.10
2018-12-27T00:41:54.245Z,68.00
2018-12-27T00:46:01.803Z,68.40
2018-12-27T00:50:07.674Z,67.70
2018-12-27T00:54:13.578Z,66.50
2018-12-27T00:58:29.629Z,67.50
2018-12-27T01:02:47.488Z,66.50
2018-12-27T01:07:30.313Z,67.00
2018-12-27T01:16:41.454Z,67.10
2018-12-27T01:20:59.084Z,68.80
2018-12-27T01:35:12.449Z,67.60
2018-12-27T02:19:23.917Z,68.50
2018-12-27T02:39:44.737Z,69.10
2018-12-27T03:19:12.659Z,67.80
2018-12-27T03:34:36.768Z,69.30
2018-12-27T03:58:35.900Z,68.00
2018-12-27T04:17:45.679Z,69.60
2018-12-27T04:22:10.719Z,68.80
2018-12-27T04:31:04.332Z,67.00
2018-12-27T04:35:16.801Z,68.40
2018-12-27T04:39:22.632Z,68.80
2018-12-27T04:43:29.151Z,69.00
2018-12-27T04:47:35.090Z,68.60
2018-12-27T04:51:40.845Z,68.30
2018-12-27T04:55:46.591Z,69.20
2018-12-27T04:59:53.729Z,69.20
2018-12-27T05:03:59.589Z,68.90
2018-12-27T05:08:10.781Z,69.60
2018-12-27T05:12:16.508Z,69.60
2018-12-27T05:16:22.303Z,69.40
2018-12-27T05:20:28.140Z,68.30
2018-12-27T05:24:33.930Z,69.50
2018-12-27T05:28:39.684Z,69.30
2018-12-27T05:32:45.447Z,70.00
2018-12-27T05:36:51.298Z,69.90
2018-12-27T05:40:57.080Z,69.40
2018-12-27T05:45:03.147Z,69.10
2018-12-27T05:49:14.773Z,69.00
2018-12-27T05:53:20.504Z,69.50
2018-12-27T05:57:26.507Z,69.20
2018-12-27T06:01:32.680Z,68.70
2018-12-27T06:05:38.542Z,68.00
2018-12-27T06:09:45.985Z,66.40
2018-12-27T06:13:53.713Z,68.90
2018-12-27T06:17:59.415Z,68.10
2018-12-27T06:22:11.441Z,68.20
2018-12-27T06:26:17.157Z,67.40
2018-12-27T06:30:22.960Z,67.80
2018-12-27T06:34:28.793Z,66.50
2018-12-27T06:38:34.669Z,67.80
2018-12-27T06:42:40.390Z,67.90
2018-12-27T06:46:46.219Z,66.10
2018-12-27T06:50:52.085Z,67.40
2018-12-27T06:54:57.826Z,66.10
2018-12-27T06:59:03.817Z,65.70
2018-12-27T07:03:13.778Z,64.80
2018-12-27T07:07:19.508Z,66.50
2018-12-27T07:11:25.247Z,67.10
2018-12-27T07:15:31.137Z,66.40
2018-12-27T07:19:37.020Z,66.30
2018-12-27T07:23:43.052Z,67.50
2018-12-27T07:27:50.437Z,67.30
2018-12-27T07:31:56.243Z,66.80
2018-12-27T07:36:02.086Z,66.90
2018-12-27T07:40:14.304Z,67.40
2018-12-27T07:44:20.074Z,66.50
2018-12-27T07:48:27.992Z,68.00
2018-12-27T07:52:40.541Z,68.00
2018-12-27T07:56:51.687Z,67.90
2018-12-27T08:00:57.476Z,67.80
2018-12-27T08:09:20.819Z,67.60
2018-12-27T08:13:26.562Z,67.40
2018-12-27T08:17:35.341Z,67.10
2018-12-27T08:21:41.103Z,66.60
2018-12-27T08:25:47.356Z,65.20
2018-12-27T08:29:53.178Z,63.80
2018-12-27T08:33:58.991Z,65.10
2018-12-27T08:38:04.950Z,64.70
2018-12-27T08:42:16.615Z,57.60
2018-12-27T08:46:22.438Z,52.50
2018-12-27T08:50:28.258Z,54.20
2018-12-27T08:54:34.253Z,51.80
2018-12-27T08:58:40.032Z,53.30
2018-12-27T09:02:45.710Z,53.40
2018-12-27T09:06:51.580Z,55.70
2018-12-27T09:10:57.708Z,56.00
2018-12-27T09:15:13.429Z,56.60
2018-12-27T09:19:19.254Z,57.10
2018-12-27T09:23:25.084Z,57.80
2018-12-27T09:27:30.993Z,57.90
2018-12-27T09:31:36.998Z,58.20
2018-12-27T09:35:42.818Z,57.40
2018-12-27T09:39:51.520Z,57.50
2018-12-27T10:04:53.652Z,55.40
2018-12-27T10:08:59.400Z,55.80
2018-12-27T10:13:05.264Z,55.30
2018-12-27T10:17:16.865Z,54.90
2018-12-27T10:21:22.596Z,54.30
2018-12-27T10:25:28.269Z,53.10
2018-12-27T10:29:33.991Z,54.00
2018-12-27T10:33:39.827Z,54.00
2018-12-27T10:37:45.570Z,53.40
2018-12-27T10:41:51.284Z,53.60
2018-12-27T10:45:57.069Z,53.60
2018-12-27T10:50:04.767Z,53.50
2018-12-27T10:54:15.166Z,53.40
2018-12-27T10:58:20.888Z,53.10
2018-12-27T11:02:26.623Z,53.10
2018-12-27T11:06:32.350Z,53.40
2018-12-27T11:10:38.176Z,52.80
2018-12-27T11:15:03.288Z,51.90
2018-12-27T11:19:13.466Z,52.60
2018-12-27T11:23:19.315Z,51.70
2018-12-27T11:27:25.074Z,47.20
2018-12-27T11:31:30.835Z,42.80
2018-12-27T11:35:36.545Z,43.40
2018-12-27T11:39:42.284Z,45.10
2018-12-27T11:43:48.057Z,47.20
2018-12-27T11:47:53.782Z,44.50
2018-12-27T11:51:59.503Z,39.80
2018-12-27T11:56:05.333Z,37.30
2018-12-27T12:00:16.582Z,37.10
2018-12-27T12:04:22.327Z,39.50
2018-12-27T12:08:28.086Z,41.40
2018-12-27T12:12:33.812Z,42.70
2018-12-27T12:16:39.577Z,43.20
2018-12-27T12:20:45.307Z,42.80
2018-12-27T12:24:51.021Z,38.50
2018-12-27T12:28:56.777Z,36.80
2018-12-27T12:33:02.580Z,32.80
2018-12-27T12:37:14.212Z,33.70
2018-12-27T12:41:19.502Z,36.80
2018-12-27T12:45:25.232Z,40.40
2018-12-27T12:49:30.922Z,41.70
2018-12-27T12:53:36.655Z,42.90
2018-12-27T12:57:42.427Z,44.40
2018-12-27T13:01:48.107Z,45.90
2018-12-27T13:05:53.837Z,51.40
2018-12-27T13:09:59.609Z,50.50
2018-12-27T13:14:05.367Z,50.60
2018-12-27T13:18:17.883Z,53.10
2018-12-27T13:22:23.792Z,49.50
2018-12-27T13:26:29.498Z,49.50
2018-12-27T13:30:35.216Z,49.30
2018-12-27T13:34:40.979Z,49.40
2018-12-27T13:38:46.723Z,49.80
2018-12-27T13:42:52.476Z,50.00
2018-12-27T13:46:58.330Z,50.20
2018-12-27T13:51:04.120Z,50.40
2018-12-27T13:55:17.207Z,51.20
2018-12-27T13:59:22.886Z,51.60
2018-12-27T14:03:28.616Z,51.50
2018-12-27T14:07:34.361Z,50.90
2018-12-27T14:11:40.094Z,51.20
2018-12-27T14:15:45.814Z,51.60
2018-12-27T14:19:51.544Z,51.50
2018-12-27T14:23:57.351Z,51.70
2018-12-27T14:28:03.055Z,52.20
2018-12-27T14:32:14.652Z,52.40
2018-12-27T14:36:20.482Z,52.40
2018-12-27T14:40:26.183Z,52.50
2018-12-27T14:44:31.937Z,52.90
2018-12-27T14:48:54.645Z,53.00
2018-12-27T14:53:00.534Z,53.70
2018-12-27T15:12:00.375Z,59.20
2018-12-27T15:16:21.744Z,63.10
2018-12-27T15:20:46.822Z,62.10
2018-12-27T15:25:11.507Z,63.10
2018-12-27T15:29:29.374Z,64.20
2018-12-27T15:33:54.534Z,64.20
2018-12-27T15:38:12.478Z,62.00
2018-12-27T15:42:55.788Z,63.90
2018-12-27T15:47:13.502Z,60.60
2018-12-27T15:52:34.593Z,62.60
2018-12-27T15:56:52.250Z,66.90
2018-12-27T16:06:16.360Z,70.30
2018-12-27T16:10:53.097Z,70.90
2018-12-27T16:15:18.147Z,70.50
2018-12-27T16:19:55.021Z,72.00
2018-12-27T16:24:20.066Z,71.60
2018-12-27T16:28:50.244Z,70.40
2018-12-27T16:33:08.476Z,68.20
2018-12-27T16:48:05.511Z,71.10
2018-12-27T16:52:48.335Z,70.20
2018-12-27T17:02:12.714Z,72.40
2018-12-27T17:06:57.079Z,73.90
2018-12-27T17:22:06.210Z,68.90
2018-12-27T17:31:58.653Z,67.40
2018-12-27T17:36:16.269Z,67.90
2018-12-27T17:40:59.029Z,67.30
2018-12-27T17:45:16.628Z,74.60
2018-12-27T17:50:24.280Z,75.30
2018-12-27T17:54:49.352Z,78.50
2018-12-27T17:59:05.395Z,75.00
2018-12-27T18:03:49.790Z,72.30
2018-12-27T18:08:08.036Z,73.90
2018-12-27T18:12:52.469Z,71.20
2018-12-27T18:16:58.184Z,72.80
2018-12-27T18:21:04.011Z,73.70
2018-12-27T18:25:09.740Z,71.80
2018-12-27T18:29:15.446Z,68.10
2018-12-27T18:33:21.200Z,73.20
2018-12-27T18:37:50.780Z,72.60
2018-12-27T18:41:56.496Z,68.70
2018-12-27T18:46:02.182Z,70.00
2018-12-27T18:50:07.940Z,71.90
2018-12-27T18:54:13.618Z,68.90
2018-12-27T18:58:49.354Z,67.20
2018-12-27T19:02:55.087Z,66.70
2018-12-27T19:07:00.854Z,66.60
2018-12-27T19:12:00.227Z,66.50
2018-12-27T19:16:05.960Z,66.40
2018-12-27T19:20:11.931Z,66.20
2018-12-27T19:24:17.654Z,65.90
2018-12-27T19:28:50.486Z,65.90
2018-12-27T19:32:56.206Z,66.10
2018-12-27T19:37:01.908Z,68.50
2018-12-27T19:41:07.612Z,67.60
2018-12-27T19:45:13.391Z,67.00
2018-12-27T19:49:19.114Z,66.00
2018-12-27T19:53:24.812Z,66.10
2018-12-27T19:57:30.526Z,65.80
2018-12-27T20:01:48.271Z,65.70
2018-12-27T20:24:46.721Z,65.20
2018-12-27T20:29:49.097Z,65.00
2018-12-27T20:33:54.802Z,65.20
2018-12-27T20:38:48.773Z,65.00
2018-12-27T20:42:54.505Z,64.60
2018-12-27T20:51:49.848Z,64.50
2018-12-27T20:55:55.628Z,64.50
2018-12-27T21:00:01.330Z,65.60
2018-12-27T21:04:07.137Z,65.10
2018-12-27T21:08:49.153Z,63.40
2018-12-27T21:12:54.834Z,63.40
2018-12-27T21:17:00.559Z,64.10
2018-12-27T21:21:06.255Z,64.30
2018-12-27T21:25:12.054Z,64.70
2018-12-27T21:29:17.716Z,65.30
2018-12-27T21:33:23.405Z,64.90
2018-12-27T21:38:00.531Z,65.90
2018-12-27T21:43:04.137Z,64.90
2018-12-27T21:47:21.742Z,67.00
2018-12-27T21:51:46.784Z,68.10
2018-12-27T21:56:04.353Z,67.90
2018-12-27T22:00:29.396Z,67.40
2018-12-27T22:04:45.352Z,67.50
2018-12-27T22:09:10.398Z,66.40
2018-12-27T22:13:28.231Z,66.80
2018-12-27T22:17:53.285Z,67.50
2018-12-27T22:22:10.985Z,68.70
2018-12-27T22:26:37.618Z,68.80
2018-12-27T22:31:04.514Z,68.50
2018-12-27T22:35:29.627Z,66.30
2018-12-27T22:39:50.237Z,67.10
2018-12-27T22:44:27.324Z,67.50
2018-12-27T22:48:52.380Z,68.00
2018-12-27T22:53:10.032Z,67.00
2018-12-27T23:02:51.051Z,66.90
2018-12-27T23:12:53.333Z,66.70
2018-12-27T23:17:10.901Z,66.20
2018-12-27T23:21:37.017Z,66.40
2018-12-27T23:25:57.642Z,66.70
2018-12-27T23:30:22.749Z,66.80
2018-12-27T23:34:40.465Z,66.80
2018-12-27T23:39:26.300Z,66.40
2018-12-27T23:43:50.529Z,67.00
2018-12-27T23:48:08.777Z,66.70
2018-12-27T23:52:26.400Z,66.90
2018-12-27T23:56:52.550Z,67.00
